sensor_id;sensor_type;location;lat;lon;timestamp;temperature;humidity
6379;DHT22;3222;48.858;10.128;2023-05-27T00:00:04;15.20;99.90
6379;DHT22;3222;48.858;10.128;2023-05-27T00:02:30;15.20;99.90
6379;DHT22;3222;48.858;10.128;2023-05-27T00:04:55;15.20;99.90
6379;DHT22;3222;48.858;10.128;2023-05-27T00:07:21;15.10;99.90
6379;DHT22;3222;48.858;10.128;2023-05-27T00:09:47;15.20;99.90
6379;DHT22;3222;48.858;10.128;2023-05-27T00:12:13;15.10;99.90
6379;DHT22;3222;48.858;10.128;2023-05-27T00:14:38;15.10;99.90
6379;DHT22;3222;48.858;10.128;2023-05-27T00:17:05;15.00;99.90
6379;DHT22;3222;48.858;10.128;2023-05-27T00:19:31;15.00;99.90
6379;DHT22;3222;48.858;10.128;2023-05-27T00:21:57;14.90;99.90
6379;DHT22;3222;48.858;10.128;2023-05-27T00:24:22;15.00;99.90
6379;DHT22;3222;48.858;10.128;2023-05-27T00:26:49;15.00;99.90
6379;DHT22;3222;48.858;10.128;2023-05-27T00:29:17;14.90;99.90
6379;DHT22;3222;48.858;10.128;2023-05-27T00:31:43;15.00;99.90
6379;DHT22;3222;48.858;10.128;2023-05-27T00:34:09;14.90;99.90
6379;DHT22;3222;48.858;10.128;2023-05-27T00:36:35;14.90;99.90
6379;DHT22;3222;48.858;10.128;2023-05-27T00:39:01;14.90;99.90
6379;DHT22;3222;48.858;10.128;2023-05-27T00:41:27;14.90;99.90
6379;DHT22;3222;48.858;10.128;2023-05-27T00:43:55;14.90;99.90
6379;DHT22;3222;48.858;10.128;2023-05-27T00:46:21;14.80;99.90
6379;DHT22;3222;48.858;10.128;2023-05-27T00:48:47;14.80;99.90
6379;DHT22;3222;48.858;10.128;2023-05-27T00:51:14;14.80;99.90
6379;DHT22;3222;48.858;10.128;2023-05-27T00:53:41;14.80;99.90
6379;DHT22;3222;48.858;10.128;2023-05-27T00:56:09;14.90;99.90
6379;DHT22;3222;48.858;10.128;2023-05-27T00:58:38;14.80;99.90
6379;DHT22;3222;48.858;10.128;2023-05-27T01:01:04;14.80;99.90
6379;DHT22;3222;48.858;10.128;2023-05-27T01:03:31;14.70;99.90
6379;DHT22;3222;48.858;10.128;2023-05-27T01:11:12;14.70;99.90
6379;DHT22;3222;48.858;10.128;2023-05-27T01:13:50;14.70;99.90
6379;DHT22;3222;48.858;10.128;2023-05-27T01:16:17;14.60;99.90
6379;DHT22;3222;48.858;10.128;2023-05-27T01:18:44;14.60;99.90
6379;DHT22;3222;48.858;10.128;2023-05-27T01:21:15;14.60;99.90
6379;DHT22;3222;48.858;10.128;2023-05-27T01:23:42;14.60;99.90
6379;DHT22;3222;48.858;10.128;2023-05-27T01:26:08;14.60;99.90
6379;DHT22;3222;48.858;10.128;2023-05-27T01:28:34;14.60;99.90
6379;DHT22;3222;48.858;10.128;2023-05-27T01:31:12;14.50;99.90
6379;DHT22;3222;48.858;10.128;2023-05-27T01:33:41;14.50;99.90
6379;DHT22;3222;48.858;10.128;2023-05-27T01:36:17;14.40;99.90
6379;DHT22;3222;48.858;10.128;2023-05-27T01:38:47;14.50;99.90
6379;DHT22;3222;48.858;10.128;2023-05-27T01:41:15;14.40;99.90
6379;DHT22;3222;48.858;10.128;2023-05-27T01:43:41;14.40;99.90
6379;DHT22;3222;48.858;10.128;2023-05-27T01:46:08;14.40;99.90
6379;DHT22;3222;48.858;10.128;2023-05-27T01:48:34;14.40;99.90
6379;DHT22;3222;48.858;10.128;2023-05-27T01:51:00;14.30;99.90
6379;DHT22;3222;48.858;10.128;2023-05-27T01:53:26;14.30;99.90
6379;DHT22;3222;48.858;10.128;2023-05-27T01:55:52;14.30;99.90
6379;DHT22;3222;48.858;10.128;2023-05-27T01:58:17;14.40;99.90
6379;DHT22;3222;48.858;10.128;2023-05-27T02:00:43;14.30;99.90
6379;DHT22;3222;48.858;10.128;2023-05-27T02:03:09;14.30;99.90
6379;DHT22;3222;48.858;10.128;2023-05-27T02:05:35;14.30;99.90
6379;DHT22;3222;48.858;10.128;2023-05-27T02:08:02;14.30;99.90
6379;DHT22;3222;48.858;10.128;2023-05-27T02:10:28;14.20;99.90
6379;DHT22;3222;48.858;10.128;2023-05-27T02:12:54;14.30;99.90
6379;DHT22;3222;48.858;10.128;2023-05-27T02:15:19;14.20;99.90
6379;DHT22;3222;48.858;10.128;2023-05-27T02:17:49;14.20;99.90
6379;DHT22;3222;48.858;10.128;2023-05-27T02:20:21;14.20;99.90
6379;DHT22;3222;48.858;10.128;2023-05-27T02:22:49;14.10;99.90
6379;DHT22;3222;48.858;10.128;2023-05-27T02:25:15;14.10;99.90
6379;DHT22;3222;48.858;10.128;2023-05-27T02:27:41;14.10;99.90
6379;DHT22;3222;48.858;10.128;2023-05-27T02:30:10;14.10;99.90
6379;DHT22;3222;48.858;10.128;2023-05-27T02:32:36;14.10;99.90
6379;DHT22;3222;48.858;10.128;2023-05-27T02:35:02;14.00;99.90
6379;DHT22;3222;48.858;10.128;2023-05-27T02:37:28;14.00;99.90
6379;DHT22;3222;48.858;10.128;2023-05-27T02:39:54;14.00;99.90
6379;DHT22;3222;48.858;10.128;2023-05-27T02:42:20;14.10;99.90
6379;DHT22;3222;48.858;10.128;2023-05-27T02:44:46;14.00;99.90
6379;DHT22;3222;48.858;10.128;2023-05-27T02:47:12;14.00;99.90
6379;DHT22;3222;48.858;10.128;2023-05-27T02:49:38;14.00;99.90
6379;DHT22;3222;48.858;10.128;2023-05-27T02:52:04;14.00;99.90
6379;DHT22;3222;48.858;10.128;2023-05-27T02:54:30;14.00;99.90
6379;DHT22;3222;48.858;10.128;2023-05-27T02:56:56;14.00;99.90
6379;DHT22;3222;48.858;10.128;2023-05-27T02:59:22;13.90;99.90
6379;DHT22;3222;48.858;10.128;2023-05-27T03:01:48;13.80;99.90
6379;DHT22;3222;48.858;10.128;2023-05-27T03:04:15;13.90;99.90
6379;DHT22;3222;48.858;10.128;2023-05-27T03:06:42;13.90;99.90
6379;DHT22;3222;48.858;10.128;2023-05-27T03:09:09;13.90;99.90
6379;DHT22;3222;48.858;10.128;2023-05-27T03:11:35;13.90;99.90
6379;DHT22;3222;48.858;10.128;2023-05-27T03:14:01;13.80;99.90
6379;DHT22;3222;48.858;10.128;2023-05-27T03:16:26;13.80;99.90
6379;DHT22;3222;48.858;10.128;2023-05-27T03:18:52;13.70;99.90
6379;DHT22;3222;48.858;10.128;2023-05-27T03:21:18;13.70;99.90
6379;DHT22;3222;48.858;10.128;2023-05-27T03:23:44;13.70;99.90
6379;DHT22;3222;48.858;10.128;2023-05-27T03:26:11;13.70;99.90
6379;DHT22;3222;48.858;10.128;2023-05-27T03:28:37;13.70;99.90
6379;DHT22;3222;48.858;10.128;2023-05-27T03:31:02;13.70;99.90
6379;DHT22;3222;48.858;10.128;2023-05-27T03:33:46;13.70;99.90
6379;DHT22;3222;48.858;10.128;2023-05-27T03:36:11;13.70;99.90
6379;DHT22;3222;48.858;10.128;2023-05-27T03:38:37;13.70;99.90
6379;DHT22;3222;48.858;10.128;2023-05-27T03:41:03;13.60;99.90
6379;DHT22;3222;48.858;10.128;2023-05-27T03:43:29;13.60;99.90
6379;DHT22;3222;48.858;10.128;2023-05-27T03:45:55;13.60;99.90
6379;DHT22;3222;48.858;10.128;2023-05-27T03:48:20;13.60;99.90
6379;DHT22;3222;48.858;10.128;2023-05-27T03:50:46;13.60;99.90
6379;DHT22;3222;48.858;10.128;2023-05-27T03:53:13;13.60;99.90
6379;DHT22;3222;48.858;10.128;2023-05-27T03:55:39;13.60;99.90
6379;DHT22;3222;48.858;10.128;2023-05-27T03:58:06;13.50;99.90
6379;DHT22;3222;48.858;10.128;2023-05-27T04:00:32;13.50;99.90
6379;DHT22;3222;48.858;10.128;2023-05-27T04:02:58;13.50;99.90
6379;DHT22;3222;48.858;10.128;2023-05-27T04:05:26;13.50;99.90
6379;DHT22;3222;48.858;10.128;2023-05-27T04:07:52;13.50;99.90
6379;DHT22;3222;48.858;10.128;2023-05-27T04:10:18;13.50;99.90
6379;DHT22;3222;48.858;10.128;2023-05-27T04:12:43;13.40;99.90
6379;DHT22;3222;48.858;10.128;2023-05-27T04:15:09;13.50;99.90
6379;DHT22;3222;48.858;10.128;2023-05-27T04:17:35;13.40;99.90
6379;DHT22;3222;48.858;10.128;2023-05-27T04:20:02;13.40;99.90
6379;DHT22;3222;48.858;10.128;2023-05-27T04:22:36;13.40;99.90
6379;DHT22;3222;48.858;10.128;2023-05-27T04:25:02;13.50;99.90
6379;DHT22;3222;48.858;10.128;2023-05-27T04:27:32;13.40;99.90
6379;DHT22;3222;48.858;10.128;2023-05-27T04:29:59;13.40;99.90
6379;DHT22;3222;48.858;10.128;2023-05-27T04:32:25;13.40;99.90
6379;DHT22;3222;48.858;10.128;2023-05-27T04:34:53;13.40;99.90
6379;DHT22;3222;48.858;10.128;2023-05-27T04:37:19;13.40;99.90
6379;DHT22;3222;48.858;10.128;2023-05-27T04:39:46;13.40;99.90
6379;DHT22;3222;48.858;10.128;2023-05-27T04:42:12;13.30;99.90
6379;DHT22;3222;48.858;10.128;2023-05-27T04:44:43;13.40;99.90
6379;DHT22;3222;48.858;10.128;2023-05-27T04:47:09;13.30;99.90
6379;DHT22;3222;48.858;10.128;2023-05-27T04:49:36;13.40;99.90
6379;DHT22;3222;48.858;10.128;2023-05-27T04:52:01;13.40;99.90
6379;DHT22;3222;48.858;10.128;2023-05-27T04:54:27;13.30;99.90
6379;DHT22;3222;48.858;10.128;2023-05-27T04:56:54;13.30;99.90
6379;DHT22;3222;48.858;10.128;2023-05-27T04:59:25;13.30;99.90
6379;DHT22;3222;48.858;10.128;2023-05-27T05:02:02;13.40;99.90
6379;DHT22;3222;48.858;10.128;2023-05-27T05:04:55;13.30;99.90
6379;DHT22;3222;48.858;10.128;2023-05-27T05:07:22;13.30;99.90
6379;DHT22;3222;48.858;10.128;2023-05-27T05:09:50;13.20;99.90
6379;DHT22;3222;48.858;10.128;2023-05-27T05:12:23;13.30;99.90
6379;DHT22;3222;48.858;10.128;2023-05-27T05:14:50;13.30;99.90
6379;DHT22;3222;48.858;10.128;2023-05-27T05:17:16;13.40;99.90
6379;DHT22;3222;48.858;10.128;2023-05-27T05:19:41;13.30;99.90
6379;DHT22;3222;48.858;10.128;2023-05-27T05:22:08;13.40;99.90
6379;DHT22;3222;48.858;10.128;2023-05-27T05:24:34;13.30;99.90
6379;DHT22;3222;48.858;10.128;2023-05-27T05:27:00;13.20;99.90
6379;DHT22;3222;48.858;10.128;2023-05-27T05:29:26;13.20;99.90
6379;DHT22;3222;48.858;10.128;2023-05-27T05:31:52;13.30;99.90
6379;DHT22;3222;48.858;10.128;2023-05-27T05:34:20;13.30;99.90
6379;DHT22;3222;48.858;10.128;2023-05-27T05:36:46;13.30;99.90
6379;DHT22;3222;48.858;10.128;2023-05-27T05:39:12;13.40;99.90
6379;DHT22;3222;48.858;10.128;2023-05-27T05:41:42;13.30;99.90
6379;DHT22;3222;48.858;10.128;2023-05-27T05:44:09;13.30;99.90
6379;DHT22;3222;48.858;10.128;2023-05-27T05:46:35;13.30;99.90
6379;DHT22;3222;48.858;10.128;2023-05-27T05:49:00;13.40;99.90
6379;DHT22;3222;48.858;10.128;2023-05-27T05:51:35;13.40;99.90
6379;DHT22;3222;48.858;10.128;2023-05-27T05:54:01;13.40;99.90
6379;DHT22;3222;48.858;10.128;2023-05-27T05:56:28;13.40;99.90
6379;DHT22;3222;48.858;10.128;2023-05-27T05:58:54;13.50;99.90
6379;DHT22;3222;48.858;10.128;2023-05-27T06:01:20;13.50;99.90
6379;DHT22;3222;48.858;10.128;2023-05-27T06:03:46;13.60;99.90
6379;DHT22;3222;48.858;10.128;2023-05-27T06:06:25;13.60;99.90
6379;DHT22;3222;48.858;10.128;2023-05-27T06:09:11;13.50;99.90
6379;DHT22;3222;48.858;10.128;2023-05-27T06:11:38;13.60;99.90
6379;DHT22;3222;48.858;10.128;2023-05-27T06:14:03;13.70;99.90
6379;DHT22;3222;48.858;10.128;2023-05-27T06:16:29;13.70;99.90
6379;DHT22;3222;48.858;10.128;2023-05-27T06:18:55;13.70;99.90
6379;DHT22;3222;48.858;10.128;2023-05-27T06:21:21;13.80;99.90
6379;DHT22;3222;48.858;10.128;2023-05-27T06:24:25;13.80;99.90
6379;DHT22;3222;48.858;10.128;2023-05-27T06:26:59;13.90;99.90
6379;DHT22;3222;48.858;10.128;2023-05-27T06:29:26;13.90;99.90
6379;DHT22;3222;48.858;10.128;2023-05-27T06:31:52;14.00;99.90
6379;DHT22;3222;48.858;10.128;2023-05-27T06:34:18;14.10;99.90
6379;DHT22;3222;48.858;10.128;2023-05-27T06:36:43;14.00;99.90
6379;DHT22;3222;48.858;10.128;2023-05-27T06:39:09;14.10;99.90
6379;DHT22;3222;48.858;10.128;2023-05-27T06:41:36;14.10;99.90
6379;DHT22;3222;48.858;10.128;2023-05-27T06:44:22;14.10;99.90
6379;DHT22;3222;48.858;10.128;2023-05-27T06:47:00;14.20;99.90
6379;DHT22;3222;48.858;10.128;2023-05-27T06:49:29;14.20;99.90
6379;DHT22;3222;48.858;10.128;2023-05-27T06:51:55;14.30;99.90
6379;DHT22;3222;48.858;10.128;2023-05-27T06:54:21;14.30;99.90
6379;DHT22;3222;48.858;10.128;2023-05-27T06:56:47;14.30;99.90
6379;DHT22;3222;48.858;10.128;2023-05-27T06:59:51;14.30;99.90
6379;DHT22;3222;48.858;10.128;2023-05-27T07:02:16;14.40;99.90
6379;DHT22;3222;48.858;10.128;2023-05-27T07:04:42;14.40;99.90
6379;DHT22;3222;48.858;10.128;2023-05-27T07:07:09;14.50;99.90
6379;DHT22;3222;48.858;10.128;2023-05-27T07:09:35;14.60;99.90
6379;DHT22;3222;48.858;10.128;2023-05-27T07:12:04;14.70;99.90
6379;DHT22;3222;48.858;10.128;2023-05-27T07:14:44;14.70;99.90
6379;DHT22;3222;48.858;10.128;2023-05-27T07:17:11;14.70;99.90
6379;DHT22;3222;48.858;10.128;2023-05-27T07:19:37;14.80;99.90
6379;DHT22;3222;48.858;10.128;2023-05-27T07:22:07;14.80;99.90
6379;DHT22;3222;48.858;10.128;2023-05-27T07:24:33;15.00;99.90
6379;DHT22;3222;48.858;10.128;2023-05-27T07:26:59;14.90;99.90
6379;DHT22;3222;48.858;10.128;2023-05-27T07:29:27;15.00;99.90
6379;DHT22;3222;48.858;10.128;2023-05-27T07:31:54;15.10;99.90
6379;DHT22;3222;48.858;10.128;2023-05-27T07:34:24;15.10;99.90
6379;DHT22;3222;48.858;10.128;2023-05-27T07:36:50;15.20;99.90
6379;DHT22;3222;48.858;10.128;2023-05-27T07:39:15;15.20;99.90
6379;DHT22;3222;48.858;10.128;2023-05-27T07:41:42;15.30;99.90
6379;DHT22;3222;48.858;10.128;2023-05-27T07:44:08;15.30;99.90
6379;DHT22;3222;48.858;10.128;2023-05-27T07:46:34;15.40;99.90
6379;DHT22;3222;48.858;10.128;2023-05-27T07:49:00;15.40;99.90
6379;DHT22;3222;48.858;10.128;2023-05-27T07:51:26;15.50;99.90
6379;DHT22;3222;48.858;10.128;2023-05-27T07:53:52;15.60;99.90
6379;DHT22;3222;48.858;10.128;2023-05-27T07:56:19;15.60;99.90
6379;DHT22;3222;48.858;10.128;2023-05-27T07:58:46;15.60;99.90
6379;DHT22;3222;48.858;10.128;2023-05-27T08:01:12;15.60;99.90
6379;DHT22;3222;48.858;10.128;2023-05-27T08:03:44;15.70;99.90
6379;DHT22;3222;48.858;10.128;2023-05-27T08:06:17;15.70;99.90
6379;DHT22;3222;48.858;10.128;2023-05-27T08:08:46;15.70;99.90
6379;DHT22;3222;48.858;10.128;2023-05-27T08:11:13;15.80;99.90
6379;DHT22;3222;48.858;10.128;2023-05-27T08:13:54;15.90;99.90
6379;DHT22;3222;48.858;10.128;2023-05-27T08:16:37;16.00;99.90
6379;DHT22;3222;48.858;10.128;2023-05-27T08:19:20;16.00;99.90
6379;DHT22;3222;48.858;10.128;2023-05-27T08:22:03;16.10;99.90
6379;DHT22;3222;48.858;10.128;2023-05-27T08:25:00;16.10;99.90
6379;DHT22;3222;48.858;10.128;2023-05-27T08:27:55;16.20;99.90
6379;DHT22;3222;48.858;10.128;2023-05-27T08:30:37;16.30;99.90
6379;DHT22;3222;48.858;10.128;2023-05-27T08:33:08;16.30;99.90
6379;DHT22;3222;48.858;10.128;2023-05-27T08:35:33;16.30;99.90
6379;DHT22;3222;48.858;10.128;2023-05-27T08:37:59;16.40;99.90
6379;DHT22;3222;48.858;10.128;2023-05-27T08:40:29;16.30;99.90
6379;DHT22;3222;48.858;10.128;2023-05-27T08:42:56;16.30;99.90
6379;DHT22;3222;48.858;10.128;2023-05-27T08:45:22;16.30;99.90
6379;DHT22;3222;48.858;10.128;2023-05-27T08:47:48;16.50;99.90
6379;DHT22;3222;48.858;10.128;2023-05-27T08:50:18;16.60;99.90
6379;DHT22;3222;48.858;10.128;2023-05-27T08:52:46;16.60;99.90
6379;DHT22;3222;48.858;10.128;2023-05-27T08:55:16;16.80;99.90
6379;DHT22;3222;48.858;10.128;2023-05-27T08:57:53;16.80;99.90
6379;DHT22;3222;48.858;10.128;2023-05-27T09:00:20;16.90;99.90
6379;DHT22;3222;48.858;10.128;2023-05-27T09:02:47;16.80;99.90
6379;DHT22;3222;48.858;10.128;2023-05-27T09:05:14;16.90;99.90
6379;DHT22;3222;48.858;10.128;2023-05-27T09:07:40;17.10;99.90
6379;DHT22;3222;48.858;10.128;2023-05-27T09:10:06;17.00;99.90
6379;DHT22;3222;48.858;10.128;2023-05-27T09:12:33;17.00;99.90
6379;DHT22;3222;48.858;10.128;2023-05-27T09:14:59;17.00;99.90
6379;DHT22;3222;48.858;10.128;2023-05-27T09:17:25;16.90;99.90
6379;DHT22;3222;48.858;10.128;2023-05-27T09:19:52;17.00;99.90
6379;DHT22;3222;48.858;10.128;2023-05-27T09:24:53;17.30;99.90
6379;DHT22;3222;48.858;10.128;2023-05-27T09:27:27;17.30;99.90
6379;DHT22;3222;48.858;10.128;2023-05-27T09:29:53;17.30;99.90
6379;DHT22;3222;48.858;10.128;2023-05-27T09:32:46;17.30;99.90
6379;DHT22;3222;48.858;10.128;2023-05-27T09:35:12;17.30;99.90
6379;DHT22;3222;48.858;10.128;2023-05-27T09:37:38;17.30;99.90
6379;DHT22;3222;48.858;10.128;2023-05-27T09:40:06;17.40;99.90
6379;DHT22;3222;48.858;10.128;2023-05-27T09:42:47;17.30;99.90
6379;DHT22;3222;48.858;10.128;2023-05-27T09:45:16;17.30;99.90
6379;DHT22;3222;48.858;10.128;2023-05-27T09:47:47;17.30;99.90
6379;DHT22;3222;48.858;10.128;2023-05-27T09:50:13;17.40;99.90
6379;DHT22;3222;48.858;10.128;2023-05-27T09:52:46;17.50;99.90
6379;DHT22;3222;48.858;10.128;2023-05-27T09:55:14;17.60;99.90
6379;DHT22;3222;48.858;10.128;2023-05-27T09:57:40;17.80;99.90
6379;DHT22;3222;48.858;10.128;2023-05-27T10:00:08;17.70;99.90
6379;DHT22;3222;48.858;10.128;2023-05-27T10:02:41;17.70;99.90
6379;DHT22;3222;48.858;10.128;2023-05-27T10:05:07;17.80;99.90
6379;DHT22;3222;48.858;10.128;2023-05-27T10:07:39;17.70;99.90
6379;DHT22;3222;48.858;10.128;2023-05-27T10:10:07;17.80;99.90
6379;DHT22;3222;48.858;10.128;2023-05-27T10:12:36;17.90;99.90
6379;DHT22;3222;48.858;10.128;2023-05-27T10:15:02;17.80;99.90
6379;DHT22;3222;48.858;10.128;2023-05-27T10:17:39;17.90;99.90
6379;DHT22;3222;48.858;10.128;2023-05-27T10:20:07;18.00;99.90
6379;DHT22;3222;48.858;10.128;2023-05-27T10:22:43;18.10;99.90
6379;DHT22;3222;48.858;10.128;2023-05-27T10:25:13;18.20;99.90
6379;DHT22;3222;48.858;10.128;2023-05-27T10:27:47;18.20;99.90
6379;DHT22;3222;48.858;10.128;2023-05-27T10:30:16;18.20;99.90
6379;DHT22;3222;48.858;10.128;2023-05-27T10:32:47;18.20;99.90
6379;DHT22;3222;48.858;10.128;2023-05-27T10:35:18;18.10;99.90
6379;DHT22;3222;48.858;10.128;2023-05-27T10:37:46;18.20;99.90
6379;DHT22;3222;48.858;10.128;2023-05-27T10:40:12;18.20;99.90
6379;DHT22;3222;48.858;10.128;2023-05-27T10:42:38;18.30;99.90
6379;DHT22;3222;48.858;10.128;2023-05-27T10:45:09;18.40;99.90
6379;DHT22;3222;48.858;10.128;2023-05-27T10:47:36;18.40;99.90
6379;DHT22;3222;48.858;10.128;2023-05-27T10:50:13;18.50;99.90
6379;DHT22;3222;48.858;10.128;2023-05-27T10:52:40;18.60;99.90
6379;DHT22;3222;48.858;10.128;2023-05-27T10:55:06;18.60;99.90
6379;DHT22;3222;48.858;10.128;2023-05-27T10:57:32;18.70;99.90
6379;DHT22;3222;48.858;10.128;2023-05-27T11:00:03;18.70;99.90
6379;DHT22;3222;48.858;10.128;2023-05-27T11:02:39;18.60;99.90
6379;DHT22;3222;48.858;10.128;2023-05-27T11:05:14;18.50;99.90
6379;DHT22;3222;48.858;10.128;2023-05-27T11:07:40;18.60;99.90
6379;DHT22;3222;48.858;10.128;2023-05-27T11:10:08;18.70;99.90
6379;DHT22;3222;48.858;10.128;2023-05-27T11:12:34;18.70;99.90
6379;DHT22;3222;48.858;10.128;2023-05-27T11:15:01;18.90;99.90
6379;DHT22;3222;48.858;10.128;2023-05-27T11:17:27;19.00;99.90
6379;DHT22;3222;48.858;10.128;2023-05-27T11:19:54;19.00;99.90
6379;DHT22;3222;48.858;10.128;2023-05-27T11:22:21;18.80;99.90
6379;DHT22;3222;48.858;10.128;2023-05-27T11:25:00;18.80;99.90
6379;DHT22;3222;48.858;10.128;2023-05-27T11:27:33;18.90;99.90
6379;DHT22;3222;48.858;10.128;2023-05-27T11:30:09;19.00;99.90
6379;DHT22;3222;48.858;10.128;2023-05-27T11:32:39;19.00;99.90
6379;DHT22;3222;48.858;10.128;2023-05-27T11:35:12;19.00;99.90
6379;DHT22;3222;48.858;10.128;2023-05-27T11:37:38;19.00;99.90
6379;DHT22;3222;48.858;10.128;2023-05-27T11:40:10;19.00;99.90
6379;DHT22;3222;48.858;10.128;2023-05-27T11:42:36;19.00;99.90
6379;DHT22;3222;48.858;10.128;2023-05-27T11:45:02;19.00;99.90
6379;DHT22;3222;48.858;10.128;2023-05-27T11:47:32;18.90;99.90
6379;DHT22;3222;48.858;10.128;2023-05-27T11:49:57;19.00;99.90
6379;DHT22;3222;48.858;10.128;2023-05-27T11:52:24;19.20;99.90
6379;DHT22;3222;48.858;10.128;2023-05-27T11:54:51;19.20;99.90
6379;DHT22;3222;48.858;10.128;2023-05-27T11:57:17;19.30;99.90
6379;DHT22;3222;48.858;10.128;2023-05-27T11:59:43;19.30;99.90
6379;DHT22;3222;48.858;10.128;2023-05-27T12:02:08;19.60;97.50
6379;DHT22;3222;48.858;10.128;2023-05-27T12:04:34;19.80;97.20
6379;DHT22;3222;48.858;10.128;2023-05-27T12:07:01;19.80;98.30
6379;DHT22;3222;48.858;10.128;2023-05-27T12:09:28;19.80;97.70
6379;DHT22;3222;48.858;10.128;2023-05-27T12:11:53;19.80;98.80
6379;DHT22;3222;48.858;10.128;2023-05-27T12:14:21;19.90;98.50
6379;DHT22;3222;48.858;10.128;2023-05-27T12:16:47;19.80;99.20
6379;DHT22;3222;48.858;10.128;2023-05-27T12:19:13;19.70;99.30
6379;DHT22;3222;48.858;10.128;2023-05-27T12:21:39;19.80;99.90
6379;DHT22;3222;48.858;10.128;2023-05-27T12:24:05;19.80;99.90
6379;DHT22;3222;48.858;10.128;2023-05-27T12:26:31;19.70;99.60
6379;DHT22;3222;48.858;10.128;2023-05-27T12:28:57;19.70;99.90
6379;DHT22;3222;48.858;10.128;2023-05-27T12:31:23;19.80;99.90
6379;DHT22;3222;48.858;10.128;2023-05-27T12:33:49;19.80;99.90
6379;DHT22;3222;48.858;10.128;2023-05-27T12:36:15;19.90;99.90
6379;DHT22;3222;48.858;10.128;2023-05-27T12:38:41;19.90;99.90
6379;DHT22;3222;48.858;10.128;2023-05-27T12:41:07;19.90;99.90
6379;DHT22;3222;48.858;10.128;2023-05-27T12:43:33;20.00;99.90
6379;DHT22;3222;48.858;10.128;2023-05-27T12:45:59;20.10;99.90
6379;DHT22;3222;48.858;10.128;2023-05-27T12:48:25;20.10;99.90
6379;DHT22;3222;48.858;10.128;2023-05-27T12:50:51;20.10;99.90
6379;DHT22;3222;48.858;10.128;2023-05-27T12:53:17;20.20;99.90
6379;DHT22;3222;48.858;10.128;2023-05-27T12:55:43;20.30;99.90
6379;DHT22;3222;48.858;10.128;2023-05-27T12:58:10;20.30;99.60
6379;DHT22;3222;48.858;10.128;2023-05-27T13:00:36;20.30;99.30
6379;DHT22;3222;48.858;10.128;2023-05-27T13:03:01;20.40;99.80
6379;DHT22;3222;48.858;10.128;2023-05-27T13:05:27;20.40;99.20
6379;DHT22;3222;48.858;10.128;2023-05-27T13:08:01;20.50;98.60
6379;DHT22;3222;48.858;10.128;2023-05-27T13:10:27;20.50;99.40
6379;DHT22;3222;48.858;10.128;2023-05-27T13:12:54;20.50;99.90
6379;DHT22;3222;48.858;10.128;2023-05-27T13:15:20;20.50;99.90
6379;DHT22;3222;48.858;10.128;2023-05-27T13:17:47;20.50;99.90
6379;DHT22;3222;48.858;10.128;2023-05-27T13:20:14;20.50;99.90
6379;DHT22;3222;48.858;10.128;2023-05-27T13:22:42;20.60;99.80
6379;DHT22;3222;48.858;10.128;2023-05-27T13:25:08;20.80;98.80
6379;DHT22;3222;48.858;10.128;2023-05-27T13:27:34;20.80;98.30
6379;DHT22;3222;48.858;10.128;2023-05-27T13:30:00;20.80;98.80
6379;DHT22;3222;48.858;10.128;2023-05-27T13:32:26;20.80;99.50
6379;DHT22;3222;48.858;10.128;2023-05-27T13:34:51;20.80;99.50
6379;DHT22;3222;48.858;10.128;2023-05-27T13:37:17;20.90;99.30
6379;DHT22;3222;48.858;10.128;2023-05-27T13:39:43;20.80;99.80
6379;DHT22;3222;48.858;10.128;2023-05-27T13:42:10;20.90;99.10
6379;DHT22;3222;48.858;10.128;2023-05-27T13:44:36;21.00;98.80
6379;DHT22;3222;48.858;10.128;2023-05-27T13:47:02;21.00;99.40
6379;DHT22;3222;48.858;10.128;2023-05-27T13:49:28;21.00;99.50
6379;DHT22;3222;48.858;10.128;2023-05-27T13:51:53;21.00;99.50
6379;DHT22;3222;48.858;10.128;2023-05-27T13:54:19;21.20;97.50
6379;DHT22;3222;48.858;10.128;2023-05-27T13:56:45;21.10;98.40
6379;DHT22;3222;48.858;10.128;2023-05-27T13:59:11;21.20;97.80
6379;DHT22;3222;48.858;10.128;2023-05-27T14:01:39;21.20;97.50
6379;DHT22;3222;48.858;10.128;2023-05-27T14:04:06;21.30;97.60
6379;DHT22;3222;48.858;10.128;2023-05-27T14:06:32;21.30;96.90
6379;DHT22;3222;48.858;10.128;2023-05-27T14:08:58;21.30;98.10
6379;DHT22;3222;48.858;10.128;2023-05-27T14:11:24;21.30;97.50
6379;DHT22;3222;48.858;10.128;2023-05-27T14:13:52;21.30;97.80
6379;DHT22;3222;48.858;10.128;2023-05-27T14:16:18;21.40;97.50
6379;DHT22;3222;48.858;10.128;2023-05-27T14:18:44;21.30;98.00
6379;DHT22;3222;48.858;10.128;2023-05-27T14:21:09;21.40;98.10
6379;DHT22;3222;48.858;10.128;2023-05-27T14:23:35;21.40;98.50
6379;DHT22;3222;48.858;10.128;2023-05-27T14:26:01;21.40;98.90
6379;DHT22;3222;48.858;10.128;2023-05-27T14:28:26;21.60;97.70
6379;DHT22;3222;48.858;10.128;2023-05-27T14:30:53;21.60;97.90
6379;DHT22;3222;48.858;10.128;2023-05-27T14:33:19;21.60;98.30
6379;DHT22;3222;48.858;10.128;2023-05-27T14:35:44;21.70;96.80
6379;DHT22;3222;48.858;10.128;2023-05-27T14:38:11;21.70;97.70
6379;DHT22;3222;48.858;10.128;2023-05-27T14:40:38;21.80;97.20
6379;DHT22;3222;48.858;10.128;2023-05-27T14:43:04;21.90;97.00
6379;DHT22;3222;48.858;10.128;2023-05-27T14:45:29;21.90;96.70
6379;DHT22;3222;48.858;10.128;2023-05-27T14:47:55;21.90;97.60
6379;DHT22;3222;48.858;10.128;2023-05-27T14:50:22;21.90;97.10
6379;DHT22;3222;48.858;10.128;2023-05-27T14:52:49;21.90;96.50
6379;DHT22;3222;48.858;10.128;2023-05-27T14:55:15;22.00;96.10
6379;DHT22;3222;48.858;10.128;2023-05-27T14:57:41;22.00;95.20
6379;DHT22;3222;48.858;10.128;2023-05-27T15:00:07;21.90;95.70
6379;DHT22;3222;48.858;10.128;2023-05-27T15:02:37;22.00;96.30
6379;DHT22;3222;48.858;10.128;2023-05-27T15:05:06;22.00;95.80
6379;DHT22;3222;48.858;10.128;2023-05-27T15:07:32;21.90;96.40
6379;DHT22;3222;48.858;10.128;2023-05-27T15:09:59;21.90;95.60
6379;DHT22;3222;48.858;10.128;2023-05-27T15:12:27;21.90;96.00
6379;DHT22;3222;48.858;10.128;2023-05-27T15:14:53;21.90;95.50
6379;DHT22;3222;48.858;10.128;2023-05-27T15:17:19;21.90;95.70
6379;DHT22;3222;48.858;10.128;2023-05-27T15:19:46;22.00;95.90
6379;DHT22;3222;48.858;10.128;2023-05-27T15:22:12;21.90;95.80
6379;DHT22;3222;48.858;10.128;2023-05-27T15:24:38;21.80;95.80
6379;DHT22;3222;48.858;10.128;2023-05-27T15:27:04;21.80;95.80
6379;DHT22;3222;48.858;10.128;2023-05-27T15:29:31;21.70;95.20
6379;DHT22;3222;48.858;10.128;2023-05-27T15:31:57;21.50;95.80
6379;DHT22;3222;48.858;10.128;2023-05-27T15:34:23;21.60;95.90
6379;DHT22;3222;48.858;10.128;2023-05-27T15:36:49;21.60;95.50
6379;DHT22;3222;48.858;10.128;2023-05-27T15:39:15;21.50;96.00
6379;DHT22;3222;48.858;10.128;2023-05-27T15:41:41;21.40;95.70
6379;DHT22;3222;48.858;10.128;2023-05-27T15:44:06;21.40;96.10
6379;DHT22;3222;48.858;10.128;2023-05-27T15:46:33;21.30;95.40
6379;DHT22;3222;48.858;10.128;2023-05-27T15:49:00;21.30;96.30
6379;DHT22;3222;48.858;10.128;2023-05-27T15:51:26;21.20;96.30
6379;DHT22;3222;48.858;10.128;2023-05-27T15:53:52;21.20;95.30
6379;DHT22;3222;48.858;10.128;2023-05-27T15:56:18;21.10;95.80